Hayward, CA (94557)

1:39 PM PDT on August 27, 2016 (GMT -0700)
Southgate | | Change Station

Elev 19 ft 37.64 °N, 122.09 °W | Updated 8 minutes ago

Scattered Clouds
Scattered Clouds
68.8 °F
Feels Like 68.8 °F
N
5.0
Wind Variable Wind from NW

Today
High -- | Low -- °F
--% Chance of Precip.
Yesterday
High -- | Low -- °F
Precip. -- in
Pressure 30.04 in
Visibility 10.0 miles
Clouds Scattered Clouds 2100 ft
Dew Point 56 °F
Humidity 63%
Rainfall 0.00 in
Snow Depth Not available.
6:34 AM 7:43 PM
Waning Crescent, 21% visible
METAR KHWD 271954Z 32011KT 10SM SCT021 21/11 A3001 RMK AO2 SLP172 T02110111
Pressure 30.04 in
Visibility 10.0 miles
Clouds Scattered Clouds 2100 ft
Dew Point 56 °F
Humidity 63%
Rainfall 0.00 in
Snow Depth Not available.
6:34 AM 7:43 PM
Waning Crescent, 21% visible
METAR KHWD 271954Z 32011KT 10SM SCT021 21/11 A3001 RMK AO2 SLP172 T02110111

10-Day Weather Forecast

Almanac

Astronomy

Aug. 27, 2016 Rise Set
Actual Time
Civil Twilight
Nautical Twilight
Astronomical Twilight
Moon
Length of Visible Light
Length of Day
Tomorrow will be .
, % of the Moon is Illuminated

Today's Extremes

State Highs State Lows

Community

WunderPhotos

Upload Photos

1,935,434 photos uploaded!

WunderBlog® & News

Nearby

Air Quality

  Air Quality AQ Index Pollutant
Not available.

Snow Depth

Station Depth Elevation

Earthquake Activity

City Distance Mag. Time & Date
Minimum magnitude displayed is 2.5.

Coastal Water Temperatures

Place Temperature

Stations

Nearby Weather Stations

Station Location Temp. Windchill Dew Point Humidity Wind Precip. Elev Updated Type
                   

Watches & Warnings

There are currently no watches in effect.